createdAt,value
2022-11-24T00:01:26.011Z,9.50
2022-11-24T00:04:00.222Z,8.80
2022-11-24T00:06:30.266Z,7.90
2022-11-24T00:08:58.996Z,7.80
2022-11-24T00:11:31.684Z,9.00
2022-11-24T00:14:00.514Z,8.40
2022-11-24T00:16:34.418Z,7.60
2022-11-24T00:19:04.687Z,7.30
2022-11-24T00:21:32.642Z,8.70
2022-11-24T00:24:01.329Z,8.70
2022-11-24T00:26:31.917Z,8.70
2022-11-24T00:29:03.269Z,8.80
2022-11-24T00:31:37.230Z,8.60
2022-11-24T00:34:07.797Z,8.60
2022-11-24T00:36:37.178Z,8.00
2022-11-24T00:39:12.287Z,8.40
2022-11-24T00:41:41.133Z,7.20
2022-11-24T00:44:09.336Z,8.20
2022-11-24T00:46:37.930Z,8.00
2022-11-24T00:49:06.210Z,7.70
2022-11-24T00:51:34.277Z,8.10
2022-11-24T00:54:02.548Z,7.40
2022-11-24T00:56:30.959Z,7.40
2022-11-24T00:58:59.092Z,7.40
2022-11-24T01:01:31.185Z,8.80
2022-11-24T01:04:02.081Z,8.30
2022-11-24T01:06:31.094Z,7.30
2022-11-24T01:08:58.987Z,7.20
2022-11-24T01:11:28.231Z,5.90
2022-11-24T01:13:58.601Z,5.30
2022-11-24T01:16:31.035Z,4.70
2022-11-24T01:19:00.142Z,4.70
2022-11-24T01:21:27.978Z,4.40
2022-11-24T01:23:55.916Z,4.80
2022-11-24T01:26:23.782Z,4.60
2022-11-24T01:28:56.389Z,5.30
2022-11-24T01:31:26.012Z,5.00
2022-11-24T01:33:54.515Z,4.80
2022-11-24T01:36:23.052Z,5.50
2022-11-24T01:38:51.977Z,6.10
2022-11-24T01:41:22.683Z,5.20
2022-11-24T01:43:52.196Z,5.10
2022-11-24T01:46:43.508Z,4.70
2022-11-24T01:49:21.819Z,5.00
2022-11-24T01:52:05.468Z,4.50
2022-11-24T01:54:38.681Z,4.50
2022-11-24T01:57:27.491Z,4.30
2022-11-24T02:00:02.043Z,4.50
2022-11-24T02:02:43.954Z,4.40
2022-11-24T02:05:29.805Z,4.90
2022-11-24T02:08:01.083Z,4.30
2022-11-24T02:10:29.818Z,4.10
2022-11-24T02:13:00.368Z,4.20
2022-11-24T02:15:28.829Z,4.30
2022-11-24T02:17:59.051Z,3.70
2022-11-24T02:20:27.008Z,3.80
2022-11-24T02:23:09.780Z,4.40
2022-11-24T02:26:08.412Z,4.10
2022-11-24T02:28:40.281Z,4.10
2022-11-24T02:31:08.914Z,4.90
2022-11-24T02:33:37.704Z,4.80
2022-11-24T02:36:05.924Z,4.50
2022-11-24T02:38:35.594Z,4.80
2022-11-24T02:41:07.771Z,4.60
2022-11-24T02:43:42.634Z,4.40
2022-11-24T02:46:10.931Z,3.70
2022-11-24T02:48:39.295Z,4.30
2022-11-24T02:51:07.136Z,3.90
2022-11-24T02:53:35.302Z,4.10
2022-11-24T02:56:03.380Z,3.50
2022-11-24T02:58:31.346Z,3.50
2022-11-24T03:00:59.893Z,3.20
2022-11-24T03:03:28.059Z,2.90
2022-11-24T03:05:55.988Z,3.00
2022-11-24T03:08:23.885Z,2.20
2022-11-24T03:10:51.858Z,2.30
2022-11-24T03:13:19.704Z,2.20
2022-11-24T03:15:47.625Z,1.90
2022-11-24T03:18:15.569Z,1.80
2022-11-24T03:20:44.253Z,1.80
2022-11-24T03:23:12.189Z,1.50
2022-11-24T03:25:40.596Z,1.70
2022-11-24T03:28:08.493Z,1.50
2022-11-24T03:30:36.385Z,1.60
2022-11-24T03:33:05.121Z,1.80
2022-11-24T03:35:33.090Z,1.90
2022-11-24T03:38:00.994Z,1.90
2022-11-24T03:40:28.863Z,1.80
2022-11-24T03:42:57.167Z,2.00
2022-11-24T03:48:13.622Z,3.20
2022-11-24T03:50:41.550Z,3.10
2022-11-24T03:53:09.495Z,3.70
2022-11-24T03:55:37.353Z,3.20
2022-11-24T03:58:05.244Z,2.50
2022-11-24T04:00:33.178Z,2.90
2022-11-24T04:03:00.995Z,2.40
2022-11-24T04:05:29.121Z,3.00
2022-11-24T04:07:57.662Z,4.80
2022-11-24T04:10:25.531Z,3.90
2022-11-24T04:12:53.395Z,3.60
2022-11-24T04:15:22.308Z,3.00
2022-11-24T04:17:50.867Z,2.80
2022-11-24T04:20:18.926Z,3.10
2022-11-24T04:22:46.838Z,2.50
2022-11-24T04:25:17.480Z,2.20
2022-11-24T04:27:45.809Z,1.90
2022-11-24T04:30:13.619Z,1.60
2022-11-24T04:32:41.437Z,1.90
2022-11-24T04:35:09.427Z,1.20
2022-11-24T04:37:37.569Z,2.00
2022-11-24T04:40:07.570Z,1.70
2022-11-24T04:42:35.574Z,2.00
2022-11-24T04:45:04.950Z,2.10
2022-11-24T04:47:33.114Z,2.50
2022-11-24T04:50:01.157Z,2.90
2022-11-24T04:52:30.377Z,2.20
2022-11-24T04:54:58.261Z,3.40
2022-11-24T04:57:27.164Z,3.90
2022-11-24T04:59:55.415Z,3.00
2022-11-24T05:02:23.486Z,2.70
2022-11-24T05:04:51.501Z,2.50
2022-11-24T05:07:19.837Z,2.70
2022-11-24T05:10:06.437Z,2.60
2022-11-24T05:12:34.424Z,2.70
2022-11-24T05:15:04.605Z,3.00
2022-11-24T05:17:35.374Z,2.60
2022-11-24T05:20:06.011Z,2.70
2022-11-24T05:22:34.339Z,2.80
2022-11-24T05:25:02.502Z,3.60
2022-11-24T05:27:30.680Z,3.30
2022-11-24T05:29:59.056Z,2.80
2022-11-24T05:32:27.100Z,2.90
2022-11-24T05:34:55.319Z,2.90
2022-11-24T05:37:25.601Z,3.00
2022-11-24T05:39:54.788Z,2.80
2022-11-24T05:42:46.091Z,2.60
2022-11-24T05:45:18.766Z,2.40
2022-11-24T05:50:17.161Z,3.40
2022-11-24T05:52:45.528Z,2.90
2022-11-24T05:55:15.184Z,4.50
2022-11-24T05:57:43.685Z,3.90
2022-11-24T06:00:12.442Z,3.90
2022-11-24T06:02:41.028Z,3.20
2022-11-24T06:05:09.416Z,2.70
2022-11-24T06:07:37.573Z,2.90
2022-11-24T06:10:05.949Z,3.10
2022-11-24T06:12:33.786Z,3.60
2022-11-24T06:15:02.218Z,2.90
2022-11-24T06:17:30.129Z,3.40
2022-11-24T06:19:58.015Z,4.20
2022-11-24T06:22:25.938Z,4.40
2022-11-24T06:24:53.930Z,4.40
2022-11-24T06:27:21.912Z,6.40
2022-11-24T06:29:49.819Z,5.60
2022-11-24T06:32:18.046Z,9.00
2022-11-24T06:34:46.078Z,7.20
2022-11-24T06:37:14.060Z,9.60
2022-11-24T06:39:42.595Z,7.90
2022-11-24T06:42:10.526Z,7.70
2022-11-24T06:44:39.481Z,6.40
2022-11-24T06:47:07.436Z,4.40
2022-11-24T06:49:35.416Z,5.40
2022-11-24T06:52:03.440Z,5.90
2022-11-24T06:54:31.669Z,5.80
2022-11-24T06:57:00.329Z,7.30
2022-11-24T06:59:28.282Z,13.80
2022-11-24T07:01:56.215Z,12.90
2022-11-24T07:04:24.083Z,8.00
2022-11-24T07:06:52.036Z,6.60
2022-11-24T07:09:19.967Z,5.50
2022-11-24T07:11:47.886Z,6.50
2022-11-24T07:14:15.876Z,5.30
2022-11-24T07:16:43.790Z,4.80
2022-11-24T07:19:11.988Z,5.50
2022-11-24T07:21:39.868Z,5.70
2022-11-24T07:24:07.963Z,5.40
2022-11-24T07:26:37.538Z,5.00
2022-11-24T07:29:06.077Z,4.90
2022-11-24T07:31:34.210Z,4.10
2022-11-24T07:34:02.249Z,7.80
2022-11-24T07:36:30.155Z,5.90
2022-11-24T07:38:58.667Z,4.00
2022-11-24T07:41:27.023Z,4.80
2022-11-24T07:43:55.819Z,6.40
2022-11-24T07:46:23.892Z,7.10
2022-11-24T07:48:52.033Z,6.90
2022-11-24T07:51:20.022Z,7.60
2022-11-24T07:53:47.900Z,7.40
2022-11-24T07:56:15.804Z,7.50
2022-11-24T07:58:45.091Z,7.90
2022-11-24T08:01:19.423Z,6.50
2022-11-24T08:03:47.544Z,5.50
2022-11-24T08:06:29.989Z,5.50
2022-11-24T08:09:00.555Z,4.50
2022-11-24T08:11:28.590Z,5.20
2022-11-24T08:13:57.819Z,5.50
2022-11-24T08:16:25.860Z,6.20
2022-11-24T08:18:55.501Z,6.70
2022-11-24T08:21:25.692Z,7.30
2022-11-24T08:23:54.941Z,13.10
2022-11-24T08:26:24.875Z,10.10
2022-11-24T08:28:58.590Z,6.60
2022-11-24T08:31:33.837Z,7.90
2022-11-24T08:34:03.816Z,6.40
2022-11-24T08:36:33.244Z,5.80
2022-11-24T08:39:01.713Z,4.90
2022-11-24T08:41:30.841Z,5.30
2022-11-24T08:43:58.814Z,4.60
2022-11-24T08:46:26.694Z,4.60
2022-11-24T08:48:55.340Z,5.30
2022-11-24T08:51:26.089Z,4.20
2022-11-24T08:53:59.021Z,4.40
2022-11-24T08:56:29.634Z,5.40
2022-11-24T08:58:58.132Z,4.70
2022-11-24T09:01:26.884Z,5.30
2022-11-24T09:03:55.100Z,3.40
2022-11-24T09:06:26.583Z,6.10
2022-11-24T09:08:55.687Z,5.40
2022-11-24T09:11:25.900Z,5.50
2022-11-24T09:13:55.218Z,3.80
2022-11-24T09:16:26.161Z,5.00
2022-11-24T09:21:27.171Z,4.20
2022-11-24T09:23:55.710Z,4.80
2022-11-24T09:26:26.727Z,4.30
2022-11-24T09:31:26.337Z,3.60
2022-11-24T09:36:23.853Z,3.20
2022-11-24T09:38:52.643Z,4.60
2022-11-24T09:41:44.600Z,3.50
2022-11-24T09:44:31.394Z,4.40
2022-11-24T09:47:17.260Z,4.30
2022-11-24T09:49:56.428Z,4.90
2022-11-24T09:52:53.208Z,4.50
2022-11-24T09:55:51.935Z,4.50
2022-11-24T09:58:43.067Z,3.60
2022-11-24T10:01:26.261Z,2.70
2022-11-24T10:03:55.047Z,2.40
2022-11-24T10:06:31.194Z,2.70
2022-11-24T10:09:37.146Z,3.90
2022-11-24T10:12:05.393Z,4.20
2022-11-24T10:14:59.064Z,4.00
2022-11-24T10:17:51.403Z,3.60
2022-11-24T10:20:38.497Z,4.20
2022-11-24T10:23:27.091Z,4.70
2022-11-24T10:25:59.364Z,5.50
2022-11-24T10:28:42.367Z,5.50
2022-11-24T10:31:24.768Z,4.10
2022-11-24T10:33:52.674Z,4.90
2022-11-24T10:37:03.109Z,5.90
2022-11-24T10:39:36.002Z,8.40
2022-11-24T10:42:10.217Z,8.00
2022-11-24T10:44:41.118Z,9.70
2022-11-24T10:47:20.310Z,5.60
2022-11-24T10:50:09.342Z,3.00
2022-11-24T10:52:43.163Z,2.70
2022-11-24T10:55:11.154Z,2.60
2022-11-24T10:57:40.745Z,3.00
2022-11-24T11:00:20.895Z,4.30
2022-11-24T11:02:51.050Z,4.00
2022-11-24T11:05:44.008Z,4.00
2022-11-24T11:08:17.475Z,3.40
2022-11-24T11:10:46.730Z,3.90
2022-11-24T11:13:27.394Z,4.40
2022-11-24T11:15:57.659Z,6.20
2022-11-24T11:18:32.869Z,7.80
2022-11-24T11:21:02.502Z,7.70
2022-11-24T11:23:34.938Z,7.70
2022-11-24T11:26:24.727Z,6.00
2022-11-24T11:35:04.180Z,3.90
2022-11-24T11:37:33.645Z,4.00
2022-11-24T11:40:01.997Z,4.30
2022-11-24T11:43:00.920Z,4.20
2022-11-24T11:45:28.024Z,4.50
2022-11-24T11:47:59.170Z,5.30
2022-11-24T11:50:47.373Z,3.80
2022-11-24T11:53:34.095Z,6.10
2022-11-24T11:56:25.826Z,4.80
2022-11-24T11:59:00.314Z,6.00
2022-11-24T12:01:38.038Z,4.80
2022-11-24T12:04:44.336Z,4.60
2022-11-24T12:07:57.091Z,7.00
2022-11-24T12:10:37.013Z,6.70
2022-11-24T12:13:13.932Z,7.20
2022-11-24T12:15:49.690Z,6.80
2022-11-24T12:18:55.861Z,8.10
2022-11-24T12:21:26.023Z,7.70
2022-11-24T12:23:57.544Z,7.40
2022-11-24T12:29:48.286Z,7.00
2022-11-24T12:32:50.450Z,5.90
2022-11-24T12:35:36.267Z,13.00
2022-11-24T12:38:23.087Z,14.40
2022-11-24T12:41:40.541Z,21.10
2022-11-24T12:44:27.291Z,9.90
2022-11-24T12:47:10.245Z,6.90
2022-11-24T12:50:14.564Z,4.40
2022-11-24T12:52:45.558Z,5.90
2022-11-24T12:55:23.755Z,5.20
2022-11-24T12:58:07.804Z,5.50
2022-11-24T13:01:11.563Z,6.70
2022-11-24T13:03:54.959Z,8.20
2022-11-24T13:06:29.572Z,7.50
2022-11-24T13:08:57.769Z,7.80
2022-11-24T13:11:36.898Z,9.30
2022-11-24T13:14:26.510Z,9.50
2022-11-24T13:17:28.053Z,9.60
2022-11-24T13:19:48.567Z,10.90
2022-11-24T13:22:26.476Z,8.00
2022-11-24T13:25:14.735Z,7.60
2022-11-24T13:27:45.710Z,7.60
2022-11-24T13:30:35.473Z,7.90
2022-11-24T13:33:16.455Z,7.10
2022-11-24T13:36:04.395Z,7.90
2022-11-24T13:38:51.432Z,8.40
2022-11-24T13:41:31.504Z,9.70
2022-11-24T13:44:14.933Z,12.90
2022-11-24T13:47:06.695Z,12.90
2022-11-24T13:49:38.916Z,10.20
2022-11-24T13:52:34.624Z,10.00
2022-11-24T13:55:21.844Z,7.30
2022-11-24T13:58:00.524Z,7.50
2022-11-24T14:00:32.120Z,11.70
2022-11-24T14:03:15.395Z,13.00
2022-11-24T14:05:50.666Z,12.70
2022-11-24T14:08:26.298Z,11.40
2022-11-24T14:10:56.525Z,10.10
2022-11-24T14:13:30.826Z,10.50
2022-11-24T14:16:03.114Z,10.30
2022-11-24T14:18:32.402Z,11.00
2022-11-24T14:21:27.902Z,10.90
2022-11-24T14:24:17.017Z,12.20
2022-11-24T14:26:46.182Z,17.30
2022-11-24T14:29:20.379Z,14.50
2022-11-24T14:31:57.111Z,11.80
2022-11-24T14:34:28.045Z,13.00
2022-11-24T14:36:57.228Z,16.90
2022-11-24T14:39:27.067Z,11.60
2022-11-24T14:42:07.991Z,23.30
2022-11-24T14:44:42.066Z,31.70
2022-11-24T14:47:32.033Z,25.60
2022-11-24T14:50:27.182Z,18.00
2022-11-24T14:52:57.143Z,14.80
2022-11-24T14:55:33.053Z,14.90
2022-11-24T14:58:01.027Z,11.10
2022-11-24T15:00:31.728Z,11.70
2022-11-24T15:03:02.405Z,16.00
2022-11-24T15:05:50.854Z,39.50
2022-11-24T15:08:18.826Z,41.90
2022-11-24T15:10:46.977Z,27.20
2022-11-24T15:13:19.998Z,23.90
2022-11-24T15:15:51.998Z,17.50
2022-11-24T15:18:43.218Z,15.10
2022-11-24T15:21:18.569Z,15.10
2022-11-24T15:24:06.130Z,17.90
2022-11-24T15:26:38.512Z,18.50
2022-11-24T15:29:13.300Z,17.50
2022-11-24T15:31:44.198Z,16.00
2022-11-24T15:34:15.771Z,18.70
2022-11-24T15:36:43.621Z,14.70
2022-11-24T15:39:11.551Z,14.60
2022-11-24T15:41:40.733Z,17.80
2022-11-24T15:44:10.236Z,18.30
2022-11-24T15:46:39.557Z,18.70
2022-11-24T15:49:07.567Z,17.00
2022-11-24T15:51:36.126Z,16.30
2022-11-24T15:54:04.090Z,17.60
2022-11-24T15:56:34.743Z,14.60
2022-11-24T15:59:04.695Z,13.80
2022-11-24T16:01:34.472Z,13.90
2022-11-24T16:04:03.060Z,16.10
2022-11-24T16:06:31.125Z,16.20
2022-11-24T16:08:59.138Z,16.40
2022-11-24T16:11:27.665Z,16.00
2022-11-24T16:13:55.591Z,15.10
2022-11-24T16:16:25.405Z,16.80
2022-11-24T16:18:53.389Z,14.60
2022-11-24T16:21:21.390Z,12.20
2022-11-24T16:23:49.254Z,14.40
2022-11-24T16:26:17.275Z,16.10
2022-11-24T16:28:45.905Z,15.50
2022-11-24T16:31:16.022Z,15.70
2022-11-24T16:33:46.422Z,16.30
2022-11-24T16:36:14.406Z,15.40
2022-11-24T16:38:42.537Z,16.20
2022-11-24T16:41:10.674Z,17.50
2022-11-24T16:43:39.061Z,19.10
2022-11-24T16:46:07.015Z,20.30
2022-11-24T16:48:37.967Z,17.50
2022-11-24T16:51:07.109Z,17.00
2022-11-24T16:53:35.091Z,15.50
2022-11-24T16:56:03.700Z,14.60
2022-11-24T16:58:31.715Z,15.10
2022-11-24T17:01:04.982Z,13.50
2022-11-24T17:03:34.122Z,12.30
2022-11-24T17:06:02.196Z,12.80
2022-11-24T17:08:39.402Z,13.70
2022-11-24T17:11:14.831Z,15.40
2022-11-24T17:13:43.558Z,17.00
2022-11-24T17:16:14.111Z,16.90
2022-11-24T17:18:42.989Z,16.90
2022-11-24T17:21:22.256Z,17.40
2022-11-24T17:23:58.042Z,17.20
2022-11-24T17:26:27.114Z,71.50
2022-11-24T17:28:56.257Z,34.50
2022-11-24T17:31:27.354Z,19.10
2022-11-24T17:33:57.252Z,24.90
2022-11-24T17:36:26.309Z,26.20
2022-11-24T17:38:54.475Z,26.60
2022-11-24T17:41:23.298Z,22.80
2022-11-24T17:43:53.209Z,24.60
2022-11-24T17:46:21.458Z,22.20
2022-11-24T17:48:50.139Z,19.30
2022-11-24T17:51:20.467Z,19.30
2022-11-24T17:53:50.554Z,19.30
2022-11-24T17:56:23.531Z,19.80
2022-11-24T17:58:57.260Z,20.00
2022-11-24T18:01:28.700Z,25.00
2022-11-24T18:03:58.130Z,23.00
2022-11-24T18:06:28.707Z,29.90
2022-11-24T18:08:57.962Z,37.90
2022-11-24T18:11:32.001Z,21.80
2022-11-24T18:14:03.802Z,22.70
2022-11-24T18:16:34.584Z,22.10
2022-11-24T18:19:08.674Z,19.00
2022-11-24T18:21:41.220Z,21.50
2022-11-24T18:24:10.624Z,19.90
2022-11-24T18:26:40.472Z,20.90
2022-11-24T18:29:09.453Z,19.50
2022-11-24T18:31:38.302Z,16.90
2022-11-24T18:34:07.004Z,19.80
2022-11-24T18:36:35.179Z,17.60
2022-11-24T18:39:05.479Z,29.60
2022-11-24T18:41:34.885Z,25.80
2022-11-24T18:44:07.673Z,20.20
2022-11-24T18:46:36.803Z,27.70
2022-11-24T18:49:07.315Z,19.60
2022-11-24T18:51:36.028Z,19.10
2022-11-24T18:54:05.586Z,17.40
2022-11-24T18:56:34.124Z,19.70
2022-11-24T18:59:02.180Z,19.80
2022-11-24T19:01:30.291Z,21.00
2022-11-24T19:04:00.690Z,18.40
2022-11-24T19:06:32.519Z,19.50
2022-11-24T19:09:13.070Z,18.30
2022-11-24T19:11:43.489Z,21.40
2022-11-24T19:14:14.572Z,19.30
2022-11-24T19:16:43.253Z,18.10
2022-11-24T19:19:12.792Z,20.50
2022-11-24T19:21:41.251Z,19.60
2022-11-24T19:24:10.293Z,18.40
2022-11-24T19:26:39.475Z,17.10
2022-11-24T19:29:08.015Z,19.10
2022-11-24T19:31:38.459Z,20.00
2022-11-24T19:34:09.084Z,25.30
2022-11-24T19:36:37.705Z,29.50
2022-11-24T19:39:05.735Z,30.60
2022-11-24T19:41:34.606Z,25.40
2022-11-24T19:44:02.677Z,19.20
2022-11-24T19:46:30.731Z,17.50
2022-11-24T19:49:00.904Z,18.90
2022-11-24T19:51:32.168Z,16.50
2022-11-24T19:54:00.711Z,16.10
2022-11-24T19:56:31.463Z,17.60
2022-11-24T19:58:59.587Z,18.00
2022-11-24T20:01:33.537Z,16.50
2022-11-24T20:04:05.010Z,19.60
2022-11-24T20:06:36.871Z,17.20
2022-11-24T20:09:07.621Z,14.00
2022-11-24T20:11:35.615Z,14.30
2022-11-24T20:14:04.499Z,14.00
2022-11-24T20:16:33.719Z,10.90
2022-11-24T20:19:07.586Z,12.50
2022-11-24T20:21:37.826Z,13.00
2022-11-24T20:24:15.424Z,13.30
2022-11-24T20:26:46.866Z,14.00
2022-11-24T20:29:15.657Z,13.80
2022-11-24T20:31:46.816Z,15.20
2022-11-24T20:36:45.612Z,13.30
2022-11-24T20:39:17.259Z,13.40
2022-11-24T20:41:45.204Z,13.30
2022-11-24T20:44:16.184Z,13.20
2022-11-24T20:49:18.761Z,12.10
2022-11-24T20:51:54.313Z,13.30
2022-11-24T20:54:22.891Z,13.00
2022-11-24T20:56:50.960Z,13.20
2022-11-24T20:59:22.569Z,13.90
2022-11-24T21:01:51.965Z,13.90
2022-11-24T21:04:22.632Z,14.20
2022-11-24T21:06:50.827Z,14.10
2022-11-24T21:09:19.426Z,13.40
2022-11-24T21:11:48.241Z,13.10
2022-11-24T21:14:16.877Z,15.10
2022-11-24T21:16:44.902Z,13.70
2022-11-24T21:19:17.652Z,13.10
2022-11-24T21:21:47.770Z,14.60
2022-11-24T21:24:19.365Z,13.90
2022-11-24T21:29:19.254Z,13.30
2022-11-24T21:34:18.599Z,13.80
2022-11-24T21:36:47.296Z,14.20
2022-11-24T21:39:16.370Z,13.70
2022-11-24T21:41:44.819Z,13.50
2022-11-24T21:44:13.767Z,15.40
2022-11-24T21:46:48.117Z,15.70
2022-11-24T21:49:19.055Z,14.90
2022-11-24T21:51:47.513Z,17.10
2022-11-24T21:54:15.618Z,16.00
2022-11-24T21:56:43.628Z,14.80
2022-11-24T21:59:11.485Z,14.20
2022-11-24T22:01:39.590Z,15.20
2022-11-24T22:04:07.686Z,15.50
2022-11-24T22:06:35.866Z,15.30
2022-11-24T22:09:03.917Z,15.60
2022-11-24T22:11:31.791Z,14.80
2022-11-24T22:13:59.866Z,15.50
2022-11-24T22:16:28.193Z,13.40
2022-11-24T22:18:56.231Z,14.80
2022-11-24T22:21:30.155Z,15.30
2022-11-24T22:23:58.187Z,14.70
2022-11-24T22:26:27.697Z,14.50
2022-11-24T22:28:57.287Z,15.80
2022-11-24T22:31:27.716Z,14.60
2022-11-24T22:33:57.140Z,15.60
2022-11-24T22:36:27.822Z,15.40
2022-11-24T22:39:03.829Z,15.60
2022-11-24T22:41:34.048Z,15.40
2022-11-24T22:44:02.601Z,15.40
2022-11-24T22:46:32.064Z,15.30
2022-11-24T22:49:01.728Z,14.20
2022-11-24T22:51:33.019Z,15.10
2022-11-24T22:54:04.134Z,15.40
2022-11-24T22:56:33.528Z,15.50
2022-11-24T22:59:02.631Z,14.00
2022-11-24T23:01:32.129Z,14.50
2022-11-24T23:04:00.382Z,14.30
2022-11-24T23:06:31.205Z,14.30
2022-11-24T23:09:00.937Z,15.30
2022-11-24T23:11:37.239Z,13.80
2022-11-24T23:14:14.172Z,15.30
2022-11-24T23:16:42.872Z,14.30
2022-11-24T23:19:10.999Z,13.30
2022-11-24T23:21:39.098Z,14.80
2022-11-24T23:24:08.705Z,14.30
2022-11-24T23:26:39.733Z,13.60
2022-11-24T23:29:08.142Z,13.70
2022-11-24T23:31:39.779Z,14.80
2022-11-24T23:34:08.178Z,15.60
2022-11-24T23:36:36.146Z,18.30
2022-11-24T23:39:11.600Z,16.10
2022-11-24T23:41:40.078Z,13.90
2022-11-24T23:44:09.076Z,13.90
2022-11-24T23:46:37.338Z,14.50
2022-11-24T23:49:05.281Z,13.40
2022-11-24T23:51:33.845Z,12.70
2022-11-24T23:54:02.171Z,13.30
2022-11-24T23:56:32.756Z,13.80
